sensor_id;sensor_type;location;lat;lon;timestamp;pressure;altitude;pressure_sealevel;temperature;humidity
56241;BME280;42155;53.096;23.226;2023-04-24T00:00:18;99286.72;;;11.61;52.09
56241;BME280;42155;53.096;23.226;2023-04-24T00:02:18;99274.69;;;11.57;52.19
56241;BME280;42155;53.096;23.226;2023-04-24T00:04:19;99279.28;;;11.55;52.30
56241;BME280;42155;53.096;23.226;2023-04-24T00:06:19;99275.28;;;11.51;51.88
56241;BME280;42155;53.096;23.226;2023-04-24T00:08:19;99238.72;;;11.26;52.22
56241;BME280;42155;53.096;23.226;2023-04-24T00:10:20;99275.84;;;11.45;52.22
56241;BME280;42155;53.096;23.226;2023-04-24T00:12:20;99284.41;;;11.39;52.25
56241;BME280;42155;53.096;23.226;2023-04-24T00:14:21;99276.16;;;11.32;52.93
56241;BME280;42155;53.096;23.226;2023-04-24T00:16:22;99236.16;;;11.06;52.70
56241;BME280;42155;53.096;23.226;2023-04-24T00:18:23;99275.63;;;11.29;52.60
56241;BME280;42155;53.096;23.226;2023-04-24T00:20:23;99258.59;;;11.21;52.51
56241;BME280;42155;53.096;23.226;2023-04-24T00:22:27;99269.50;;;11.28;52.57
56241;BME280;42155;53.096;23.226;2023-04-24T00:24:28;99251.22;;;11.15;52.58
56241;BME280;42155;53.096;23.226;2023-04-24T00:26:28;99265.00;;;11.29;52.40
56241;BME280;42155;53.096;23.226;2023-04-24T00:28:29;99259.16;;;11.25;52.66
56241;BME280;42155;53.096;23.226;2023-04-24T00:30:29;99263.06;;;11.21;53.22
56241;BME280;42155;53.096;23.226;2023-04-24T00:32:29;99270.63;;;11.16;52.76
56241;BME280;42155;53.096;23.226;2023-04-24T00:34:30;99220.97;;;10.89;52.74
56241;BME280;42155;53.096;23.226;2023-04-24T00:36:30;99217.91;;;10.84;53.21
56241;BME280;42155;53.096;23.226;2023-04-24T00:38:30;99244.97;;;10.97;53.25
56241;BME280;42155;53.096;23.226;2023-04-24T00:40:31;99192.25;;;10.65;53.25
56241;BME280;42155;53.096;23.226;2023-04-24T00:42:31;99260.31;;;11.03;53.12
56241;BME280;42155;53.096;23.226;2023-04-24T00:44:33;99230.50;;;10.82;53.46
56241;BME280;42155;53.096;23.226;2023-04-24T00:46:33;99264.81;;;10.93;54.09
56241;BME280;42155;53.096;23.226;2023-04-24T00:48:34;99234.84;;;10.73;53.78
56241;BME280;42155;53.096;23.226;2023-04-24T00:50:35;99221.59;;;10.63;54.04
56241;BME280;42155;53.096;23.226;2023-04-24T00:52:36;99253.94;;;10.77;54.28
56241;BME280;42155;53.096;23.226;2023-04-24T00:54:36;99262.63;;;10.79;53.97
56241;BME280;42155;53.096;23.226;2023-04-24T00:56:37;99257.88;;;10.73;54.05
56241;BME280;42155;53.096;23.226;2023-04-24T00:58:38;99253.69;;;10.70;54.57
56241;BME280;42155;53.096;23.226;2023-04-24T01:00:38;99252.56;;;10.73;54.41
56241;BME280;42155;53.096;23.226;2023-04-24T01:02:39;99258.72;;;10.73;54.15
56241;BME280;42155;53.096;23.226;2023-04-24T01:04:41;99251.03;;;10.70;53.87
56241;BME280;42155;53.096;23.226;2023-04-24T01:06:43;99249.78;;;10.64;54.24
56241;BME280;42155;53.096;23.226;2023-04-24T01:08:45;99223.53;;;10.42;54.72
56241;BME280;42155;53.096;23.226;2023-04-24T01:10:47;99248.66;;;10.57;55.02
56241;BME280;42155;53.096;23.226;2023-04-24T01:12:48;99248.09;;;10.54;54.75
56241;BME280;42155;53.096;23.226;2023-04-24T01:14:49;99224.66;;;10.30;54.94
56241;BME280;42155;53.096;23.226;2023-04-24T01:16:49;99229.13;;;10.29;55.43
56241;BME280;42155;53.096;23.226;2023-04-24T01:18:49;99247.56;;;10.31;55.42
56241;BME280;42155;53.096;23.226;2023-04-24T01:20:53;99232.72;;;10.09;55.46
56241;BME280;42155;53.096;23.226;2023-04-24T01:22:54;99255.59;;;10.19;56.14
56241;BME280;42155;53.096;23.226;2023-04-24T01:24:54;99245.56;;;10.13;56.12
56241;BME280;42155;53.096;23.226;2023-04-24T01:26:55;99241.50;;;10.09;55.97
56241;BME280;42155;53.096;23.226;2023-04-24T01:28:55;99247.78;;;10.08;55.99
56241;BME280;42155;53.096;23.226;2023-04-24T01:30:56;99204.66;;;9.87;55.76
56241;BME280;42155;53.096;23.226;2023-04-24T01:32:56;99241.09;;;10.04;56.30
56241;BME280;42155;53.096;23.226;2023-04-24T01:34:58;99255.34;;;10.13;55.83
56241;BME280;42155;53.096;23.226;2023-04-24T01:36:59;99247.66;;;10.19;55.78
56241;BME280;42155;53.096;23.226;2023-04-24T01:39:00;99239.00;;;10.17;55.82
56241;BME280;42155;53.096;23.226;2023-04-24T01:41:00;99245.88;;;10.30;55.78
56241;BME280;42155;53.096;23.226;2023-04-24T01:43:02;99243.94;;;10.32;55.57
56241;BME280;42155;53.096;23.226;2023-04-24T01:45:04;99242.38;;;10.39;55.79
56241;BME280;42155;53.096;23.226;2023-04-24T01:47:05;99236.41;;;10.37;55.44
56241;BME280;42155;53.096;23.226;2023-04-24T01:49:05;99240.84;;;10.46;55.12
56241;BME280;42155;53.096;23.226;2023-04-24T01:51:06;99166.03;;;10.04;55.74
56241;BME280;42155;53.096;23.226;2023-04-24T01:53:06;99229.69;;;10.52;55.68
56241;BME280;42155;53.096;23.226;2023-04-24T01:55:07;99238.34;;;10.54;55.69
56241;BME280;42155;53.096;23.226;2023-04-24T01:57:08;99231.91;;;10.57;55.18
56241;BME280;42155;53.096;23.226;2023-04-24T01:59:12;99236.38;;;10.56;55.70
56241;BME280;42155;53.096;23.226;2023-04-24T02:01:18;99224.09;;;10.55;55.24
56241;BME280;42155;53.096;23.226;2023-04-24T02:03:18;99232.75;;;10.57;55.73
56241;BME280;42155;53.096;23.226;2023-04-24T02:05:18;99238.34;;;10.54;55.62
56241;BME280;42155;53.096;23.226;2023-04-24T02:07:19;99223.38;;;10.53;55.60
56241;BME280;42155;53.096;23.226;2023-04-24T02:09:19;99199.94;;;10.39;55.75
56241;BME280;42155;53.096;23.226;2023-04-24T02:11:19;99173.84;;;10.25;55.72
56241;BME280;42155;53.096;23.226;2023-04-24T02:13:20;99218.78;;;10.55;56.06
56241;BME280;42155;53.096;23.226;2023-04-24T02:15:20;99212.66;;;10.45;55.38
56241;BME280;42155;53.096;23.226;2023-04-24T02:17:20;99203.44;;;10.39;55.73
56241;BME280;42155;53.096;23.226;2023-04-24T02:19:21;99227.44;;;10.57;55.27
56241;BME280;42155;53.096;23.226;2023-04-24T02:21:21;99226.31;;;10.60;55.83
56241;BME280;42155;53.096;23.226;2023-04-24T02:23:21;99221.84;;;10.60;56.10
56241;BME280;42155;53.096;23.226;2023-04-24T02:25:22;99216.53;;;10.60;55.61
56241;BME280;42155;53.096;23.226;2023-04-24T02:27:22;99223.25;;;10.64;55.77
56241;BME280;42155;53.096;23.226;2023-04-24T02:29:23;99211.50;;;10.67;55.19
56241;BME280;42155;53.096;23.226;2023-04-24T02:31:23;99216.25;;;10.73;55.55
56241;BME280;42155;53.096;23.226;2023-04-24T02:33:23;99207.16;;;10.76;55.41
56241;BME280;42155;53.096;23.226;2023-04-24T02:35:24;99211.47;;;10.77;55.66
56241;BME280;42155;53.096;23.226;2023-04-24T02:37:24;99210.09;;;10.82;55.23
56241;BME280;42155;53.096;23.226;2023-04-24T02:39:24;99201.28;;;10.82;55.50
56241;BME280;42155;53.096;23.226;2023-04-24T02:41:25;99200.31;;;10.83;54.74
56241;BME280;42155;53.096;23.226;2023-04-24T02:43:25;99204.34;;;10.87;54.92
56241;BME280;42155;53.096;23.226;2023-04-24T02:45:25;99207.84;;;10.87;55.52
56241;BME280;42155;53.096;23.226;2023-04-24T02:47:26;99211.06;;;10.91;55.01
56241;BME280;42155;53.096;23.226;2023-04-24T02:49:26;99163.88;;;10.65;55.01
56241;BME280;42155;53.096;23.226;2023-04-24T02:51:26;99211.72;;;10.93;55.53
56241;BME280;42155;53.096;23.226;2023-04-24T02:53:27;99202.38;;;10.89;55.37
56241;BME280;42155;53.096;23.226;2023-04-24T02:55:27;99202.53;;;10.87;55.25
56241;BME280;42155;53.096;23.226;2023-04-24T02:57:27;99209.34;;;10.90;55.26
56241;BME280;42155;53.096;23.226;2023-04-24T02:59:28;99205.75;;;10.91;55.55
56241;BME280;42155;53.096;23.226;2023-04-24T03:01:28;99196.38;;;10.87;55.29
56241;BME280;42155;53.096;23.226;2023-04-24T03:03:29;99206.41;;;10.93;55.79
56241;BME280;42155;53.096;23.226;2023-04-24T03:05:29;99201.69;;;10.87;55.56
56241;BME280;42155;53.096;23.226;2023-04-24T03:07:29;99202.38;;;10.89;55.12
56241;BME280;42155;53.096;23.226;2023-04-24T03:09:30;99203.91;;;10.91;55.41
56241;BME280;42155;53.096;23.226;2023-04-24T03:11:30;99212.00;;;10.90;55.94
56241;BME280;42155;53.096;23.226;2023-04-24T03:13:30;99207.53;;;10.90;55.23
56241;BME280;42155;53.096;23.226;2023-04-24T03:15:31;99201.81;;;10.85;55.76
56241;BME280;42155;53.096;23.226;2023-04-24T03:17:31;99206.16;;;10.86;56.11
56241;BME280;42155;53.096;23.226;2023-04-24T03:19:31;99199.59;;;10.81;55.41
56241;BME280;42155;53.096;23.226;2023-04-24T03:21:32;99200.31;;;10.83;55.76
56241;BME280;42155;53.096;23.226;2023-04-24T03:23:33;99204.63;;;10.84;55.44
56241;BME280;42155;53.096;23.226;2023-04-24T03:25:33;99193.34;;;10.82;55.24
56241;BME280;42155;53.096;23.226;2023-04-24T03:27:33;99206.69;;;10.90;56.05
56241;BME280;42155;53.096;23.226;2023-04-24T03:29:34;99185.38;;;10.82;55.50
56241;BME280;42155;53.096;23.226;2023-04-24T03:31:34;99210.63;;;10.95;55.32
56241;BME280;42155;53.096;23.226;2023-04-24T03:33:34;99207.81;;;10.97;55.82
56241;BME280;42155;53.096;23.226;2023-04-24T03:35:34;99212.84;;;11.00;55.30
56241;BME280;42155;53.096;23.226;2023-04-24T03:37:35;99155.06;;;10.75;55.46
56241;BME280;42155;53.096;23.226;2023-04-24T03:39:35;99209.72;;;11.14;55.34
56241;BME280;42155;53.096;23.226;2023-04-24T03:41:35;99213.03;;;11.16;55.53
56241;BME280;42155;53.096;23.226;2023-04-24T03:43:36;99198.09;;;11.15;55.23
56241;BME280;42155;53.096;23.226;2023-04-24T03:45:36;99128.63;;;10.83;54.69
56241;BME280;42155;53.096;23.226;2023-04-24T03:47:36;99190.63;;;11.29;54.65
56241;BME280;42155;53.096;23.226;2023-04-24T03:49:37;99188.56;;;11.22;55.19
56241;BME280;42155;53.096;23.226;2023-04-24T03:51:37;99209.03;;;11.40;55.28
56241;BME280;42155;53.096;23.226;2023-04-24T03:53:37;99207.75;;;11.44;54.59
56241;BME280;42155;53.096;23.226;2023-04-24T03:55:38;99196.50;;;11.78;54.36
56241;BME280;42155;53.096;23.226;2023-04-24T03:57:40;99202.56;;;12.15;53.23
56241;BME280;42155;53.096;23.226;2023-04-24T03:59:40;99192.25;;;12.30;52.78
56241;BME280;42155;53.096;23.226;2023-04-24T04:01:42;99171.56;;;12.68;52.25
56241;BME280;42155;53.096;23.226;2023-04-24T04:03:42;99188.91;;;13.66;50.71
56241;BME280;42155;53.096;23.226;2023-04-24T04:05:42;99190.69;;;14.24;49.69
56241;BME280;42155;53.096;23.226;2023-04-24T04:07:43;99190.38;;;14.60;48.63
56241;BME280;42155;53.096;23.226;2023-04-24T04:09:43;99184.69;;;14.80;48.09
56241;BME280;42155;53.096;23.226;2023-04-24T04:11:43;99187.13;;;14.97;48.21
56241;BME280;42155;53.096;23.226;2023-04-24T04:13:44;99194.16;;;15.54;46.75
56241;BME280;42155;53.096;23.226;2023-04-24T04:15:44;99179.13;;;16.76;45.25
56241;BME280;42155;53.096;23.226;2023-04-24T04:17:44;99182.22;;;18.19;42.53
56241;BME280;42155;53.096;23.226;2023-04-24T04:19:45;99174.47;;;19.37;40.48
56241;BME280;42155;53.096;23.226;2023-04-24T04:21:45;99172.34;;;20.54;38.80
56241;BME280;42155;53.096;23.226;2023-04-24T04:23:45;99182.19;;;21.47;37.20
56241;BME280;42155;53.096;23.226;2023-04-24T04:25:45;99171.72;;;22.15;36.39
56241;BME280;42155;53.096;23.226;2023-04-24T04:27:46;99139.84;;;22.24;36.14
56241;BME280;42155;53.096;23.226;2023-04-24T04:29:47;99183.91;;;22.24;36.56
56241;BME280;42155;53.096;23.226;2023-04-24T04:31:47;99196.94;;;21.96;36.87
56241;BME280;42155;53.096;23.226;2023-04-24T04:33:47;99183.75;;;21.74;37.08
56241;BME280;42155;53.096;23.226;2023-04-24T04:35:48;99191.47;;;21.64;37.10
56241;BME280;42155;53.096;23.226;2023-04-24T04:37:48;99185.47;;;21.55;37.09
56241;BME280;42155;53.096;23.226;2023-04-24T04:39:48;99177.25;;;21.37;37.23
56241;BME280;42155;53.096;23.226;2023-04-24T04:41:50;99181.81;;;21.37;36.89
56241;BME280;42155;53.096;23.226;2023-04-24T04:43:50;99177.88;;;21.32;36.71
56241;BME280;42155;53.096;23.226;2023-04-24T04:45:51;99161.50;;;21.14;36.91
56241;BME280;42155;53.096;23.226;2023-04-24T04:47:52;99175.59;;;21.16;36.60
56241;BME280;42155;53.096;23.226;2023-04-24T04:49:52;99165.03;;;21.08;36.54
56241;BME280;42155;53.096;23.226;2023-04-24T04:51:52;99167.75;;;21.08;36.76
56241;BME280;42155;53.096;23.226;2023-04-24T04:53:53;99175.84;;;21.08;36.81
56241;BME280;42155;53.096;23.226;2023-04-24T04:55:53;99159.41;;;21.03;36.26
56241;BME280;42155;53.096;23.226;2023-04-24T04:57:53;99173.75;;;21.10;36.12
56241;BME280;42155;53.096;23.226;2023-04-24T04:59:54;99172.28;;;21.14;36.56
56241;BME280;42155;53.096;23.226;2023-04-24T05:01:54;99173.53;;;21.18;36.26
56241;BME280;42155;53.096;23.226;2023-04-24T05:03:54;99167.69;;;21.21;36.06
56241;BME280;42155;53.096;23.226;2023-04-24T05:05:55;99177.22;;;21.30;35.89
56241;BME280;42155;53.096;23.226;2023-04-24T05:07:55;99174.94;;;21.34;35.53
56241;BME280;42155;53.096;23.226;2023-04-24T05:09:55;99178.47;;;21.41;35.50
56241;BME280;42155;53.096;23.226;2023-04-24T05:11:56;99172.63;;;21.51;35.35
56241;BME280;42155;53.096;23.226;2023-04-24T05:13:56;99169.47;;;21.60;35.14
56241;BME280;42155;53.096;23.226;2023-04-24T05:15:57;99165.88;;;21.73;35.72
56241;BME280;42155;53.096;23.226;2023-04-24T05:17:58;99174.94;;;21.92;35.00
56241;BME280;42155;53.096;23.226;2023-04-24T05:19:58;99170.94;;;21.95;34.92
56241;BME280;42155;53.096;23.226;2023-04-24T05:21:59;99173.16;;;22.11;35.12
56241;BME280;42155;53.096;23.226;2023-04-24T05:23:59;99163.53;;;22.28;34.67
56241;BME280;42155;53.096;23.226;2023-04-24T05:25:59;99164.50;;;22.59;34.72
56241;BME280;42155;53.096;23.226;2023-04-24T05:28:00;99147.00;;;22.86;33.62
56241;BME280;42155;53.096;23.226;2023-04-24T05:30:00;99136.84;;;23.25;32.67
56241;BME280;42155;53.096;23.226;2023-04-24T05:32:01;99167.91;;;24.38;31.61
56241;BME280;42155;53.096;23.226;2023-04-24T05:34:06;99160.81;;;25.54;30.14
56241;BME280;42155;53.096;23.226;2023-04-24T05:36:06;99158.47;;;26.60;28.35
56241;BME280;42155;53.096;23.226;2023-04-24T05:38:07;99153.53;;;27.52;27.93
56241;BME280;42155;53.096;23.226;2023-04-24T05:40:08;99148.56;;;28.47;27.04
56241;BME280;42155;53.096;23.226;2023-04-24T05:42:08;99127.81;;;29.25;25.84
56241;BME280;42155;53.096;23.226;2023-04-24T05:44:08;99131.94;;;29.96;25.37
56241;BME280;42155;53.096;23.226;2023-04-24T05:46:09;99139.94;;;30.48;24.74
56241;BME280;42155;53.096;23.226;2023-04-24T05:48:09;99105.06;;;31.10;23.66
56241;BME280;42155;53.096;23.226;2023-04-24T05:50:10;99140.53;;;32.15;23.67
56241;BME280;42155;53.096;23.226;2023-04-24T05:52:11;99137.41;;;32.95;22.16
56241;BME280;42155;53.096;23.226;2023-04-24T05:54:11;99136.06;;;33.65;21.98
56241;BME280;42155;53.096;23.226;2023-04-24T05:56:11;99135.44;;;34.11;21.20
56241;BME280;42155;53.096;23.226;2023-04-24T05:58:12;99133.03;;;34.42;21.14
56241;BME280;42155;53.096;23.226;2023-04-24T06:00:12;99108.97;;;34.80;20.85
56241;BME280;42155;53.096;23.226;2023-04-24T06:02:13;99109.22;;;34.98;20.81
56241;BME280;42155;53.096;23.226;2023-04-24T06:04:13;99128.66;;;35.20;20.60
56241;BME280;42155;53.096;23.226;2023-04-24T06:06:13;99114.25;;;34.63;20.62
56241;BME280;42155;53.096;23.226;2023-04-24T06:08:14;99125.59;;;33.48;21.58
56241;BME280;42155;53.096;23.226;2023-04-24T06:10:14;99137.38;;;32.37;23.00
56241;BME280;42155;53.096;23.226;2023-04-24T06:12:14;99131.31;;;31.41;23.77
56241;BME280;42155;53.096;23.226;2023-04-24T06:14:15;99126.53;;;30.47;24.28
56241;BME280;42155;53.096;23.226;2023-04-24T06:16:15;99099.72;;;29.35;25.52
56241;BME280;42155;53.096;23.226;2023-04-24T06:18:16;99128.16;;;28.91;25.97
56241;BME280;42155;53.096;23.226;2023-04-24T06:20:16;99119.63;;;28.46;26.85
56241;BME280;42155;53.096;23.226;2023-04-24T06:22:16;99140.66;;;28.18;26.35
56241;BME280;42155;53.096;23.226;2023-04-24T06:24:17;99117.97;;;27.63;26.94
56241;BME280;42155;53.096;23.226;2023-04-24T06:26:17;99139.28;;;27.45;27.91
56241;BME280;42155;53.096;23.226;2023-04-24T06:28:17;99140.94;;;27.07;27.99
56241;BME280;42155;53.096;23.226;2023-04-24T06:30:27;99134.38;;;26.86;28.50
56241;BME280;42155;53.096;23.226;2023-04-24T06:32:39;99130.19;;;26.61;28.15
56241;BME280;42155;53.096;23.226;2023-04-24T06:34:40;99127.47;;;26.45;29.35
56241;BME280;42155;53.096;23.226;2023-04-24T06:36:40;99133.28;;;26.36;28.61
56241;BME280;42155;53.096;23.226;2023-04-24T06:38:41;99135.75;;;26.21;29.20
56241;BME280;42155;53.096;23.226;2023-04-24T06:40:42;99117.81;;;25.92;29.52
56241;BME280;42155;53.096;23.226;2023-04-24T06:42:42;99123.41;;;25.85;30.17
56241;BME280;42155;53.096;23.226;2023-04-24T06:44:42;99128.22;;;25.95;30.67
56241;BME280;42155;53.096;23.226;2023-04-24T06:46:43;99130.19;;;25.99;29.81
56241;BME280;42155;53.096;23.226;2023-04-24T06:48:43;99130.84;;;25.89;30.08
56241;BME280;42155;53.096;23.226;2023-04-24T06:50:43;99133.22;;;25.74;30.01
56241;BME280;42155;53.096;23.226;2023-04-24T06:52:44;99131.03;;;25.59;30.88
56241;BME280;42155;53.096;23.226;2023-04-24T06:54:44;99099.59;;;25.23;30.50
56241;BME280;42155;53.096;23.226;2023-04-24T06:56:45;99144.22;;;25.27;30.95
56241;BME280;42155;53.096;23.226;2023-04-24T06:58:45;99133.84;;;25.24;31.06
56241;BME280;42155;53.096;23.226;2023-04-24T07:00:46;99132.69;;;25.20;31.14
56241;BME280;42155;53.096;23.226;2023-04-24T07:02:46;99067.69;;;24.78;31.35
56241;BME280;42155;53.096;23.226;2023-04-24T07:04:46;99125.81;;;25.06;31.87
56241;BME280;42155;53.096;23.226;2023-04-24T07:06:48;99138.78;;;25.04;31.95
56241;BME280;42155;53.096;23.226;2023-04-24T07:08:48;99132.31;;;24.93;31.63
56241;BME280;42155;53.096;23.226;2023-04-24T07:10:49;99131.50;;;24.93;31.59
56241;BME280;42155;53.096;23.226;2023-04-24T07:12:50;99111.78;;;24.85;31.06
56241;BME280;42155;53.096;23.226;2023-04-24T07:14:50;99126.31;;;24.79;31.70
56241;BME280;42155;53.096;23.226;2023-04-24T07:16:51;99126.41;;;24.61;32.08
56241;BME280;42155;53.096;23.226;2023-04-24T07:18:53;99112.97;;;24.43;32.73
56241;BME280;42155;53.096;23.226;2023-04-24T07:20:53;99100.34;;;24.36;32.25
56241;BME280;42155;53.096;23.226;2023-04-24T07:22:53;99118.50;;;24.48;32.26
56241;BME280;42155;53.096;23.226;2023-04-24T07:24:54;99127.00;;;24.51;32.67
56241;BME280;42155;53.096;23.226;2023-04-24T07:26:54;99140.19;;;24.48;32.55
56241;BME280;42155;53.096;23.226;2023-04-24T07:28:55;99134.66;;;24.43;32.51
56241;BME280;42155;53.096;23.226;2023-04-24T07:30:55;99113.38;;;24.28;32.40
56241;BME280;42155;53.096;23.226;2023-04-24T07:32:56;99133.44;;;24.27;32.62
56241;BME280;42155;53.096;23.226;2023-04-24T07:34:56;99127.66;;;23.93;33.74
56241;BME280;42155;53.096;23.226;2023-04-24T07:36:56;99127.38;;;23.83;33.23
56241;BME280;42155;53.096;23.226;2023-04-24T07:38:57;99124.00;;;23.87;33.41
56241;BME280;42155;53.096;23.226;2023-04-24T07:40:57;99123.53;;;23.91;33.28
56241;BME280;42155;53.096;23.226;2023-04-24T07:42:58;99117.09;;;23.73;33.44
56241;BME280;42155;53.096;23.226;2023-04-24T07:44:58;99130.47;;;23.86;33.45
56241;BME280;42155;53.096;23.226;2023-04-24T07:46:58;99126.84;;;23.93;33.22
56241;BME280;42155;53.096;23.226;2023-04-24T07:48:58;99123.88;;;23.94;33.88
56241;BME280;42155;53.096;23.226;2023-04-24T07:50:59;99120.47;;;23.99;34.17
56241;BME280;42155;53.096;23.226;2023-04-24T07:52:59;99104.34;;;23.92;34.32
56241;BME280;42155;53.096;23.226;2023-04-24T07:55:00;99133.81;;;24.00;33.73
56241;BME280;42155;53.096;23.226;2023-04-24T07:57:00;99118.13;;;23.91;33.82
56241;BME280;42155;53.096;23.226;2023-04-24T07:59:01;99095.44;;;23.73;34.37
56241;BME280;42155;53.096;23.226;2023-04-24T08:01:01;99128.34;;;23.88;33.85
56241;BME280;42155;53.096;23.226;2023-04-24T08:03:01;99130.72;;;23.85;33.60
56241;BME280;42155;53.096;23.226;2023-04-24T08:05:02;99129.13;;;23.77;33.38
56241;BME280;42155;53.096;23.226;2023-04-24T08:07:02;99111.25;;;23.58;34.04
56241;BME280;42155;53.096;23.226;2023-04-24T08:09:03;99137.13;;;23.54;34.29
56241;BME280;42155;53.096;23.226;2023-04-24T08:11:03;99133.66;;;23.47;34.60
56241;BME280;42155;53.096;23.226;2023-04-24T08:13:03;99135.50;;;23.34;34.43
56241;BME280;42155;53.096;23.226;2023-04-24T08:15:04;99126.03;;;23.25;34.64
56241;BME280;42155;53.096;23.226;2023-04-24T08:17:05;99104.28;;;22.95;35.05
56241;BME280;42155;53.096;23.226;2023-04-24T08:19:05;99133.22;;;23.13;35.35
56241;BME280;42155;53.096;23.226;2023-04-24T08:21:06;99132.56;;;23.18;35.32
56241;BME280;42155;53.096;23.226;2023-04-24T08:23:06;99138.94;;;23.23;35.17
56241;BME280;42155;53.096;23.226;2023-04-24T08:25:08;99101.97;;;22.99;34.79
56241;BME280;42155;53.096;23.226;2023-04-24T08:27:08;99121.72;;;22.99;34.71
56241;BME280;42155;53.096;23.226;2023-04-24T08:29:09;99096.53;;;22.99;35.36
56241;BME280;42155;53.096;23.226;2023-04-24T08:31:09;99126.16;;;23.12;35.27
56241;BME280;42155;53.096;23.226;2023-04-24T08:33:09;99133.47;;;23.30;35.16
56241;BME280;42155;53.096;23.226;2023-04-24T08:35:10;99130.28;;;23.33;34.47
56241;BME280;42155;53.096;23.226;2023-04-24T08:37:10;99128.78;;;23.37;34.22
56241;BME280;42155;53.096;23.226;2023-04-24T08:39:11;99093.84;;;23.17;34.41
56241;BME280;42155;53.096;23.226;2023-04-24T08:41:12;99132.94;;;23.40;35.24
56241;BME280;42155;53.096;23.226;2023-04-24T08:43:14;99118.34;;;23.41;35.52
56241;BME280;42155;53.096;23.226;2023-04-24T08:45:15;99112.00;;;23.47;34.66
56241;BME280;42155;53.096;23.226;2023-04-24T08:47:16;99121.19;;;23.46;34.77
56241;BME280;42155;53.096;23.226;2023-04-24T08:49:17;99129.06;;;23.47;35.15
56241;BME280;42155;53.096;23.226;2023-04-24T08:51:18;99122.84;;;23.47;34.48
56241;BME280;42155;53.096;23.226;2023-04-24T08:53:19;99125.53;;;23.47;34.14
56241;BME280;42155;53.096;23.226;2023-04-24T08:55:20;99091.41;;;23.27;34.02
56241;BME280;42155;53.096;23.226;2023-04-24T08:57:21;99124.78;;;23.58;34.61
56241;BME280;42155;53.096;23.226;2023-04-24T08:59:22;99130.97;;;23.65;33.95
56241;BME280;42155;53.096;23.226;2023-04-24T09:01:24;99105.91;;;23.70;33.17
56241;BME280;42155;53.096;23.226;2023-04-24T09:03:27;99111.31;;;23.70;32.99
56241;BME280;42155;53.096;23.226;2023-04-24T09:05:28;99122.97;;;23.70;33.18
56241;BME280;42155;53.096;23.226;2023-04-24T09:07:30;99104.50;;;23.67;33.88
56241;BME280;42155;53.096;23.226;2023-04-24T09:09:32;99111.56;;;23.68;33.42
56241;BME280;42155;53.096;23.226;2023-04-24T09:11:34;99122.16;;;23.70;33.46
56241;BME280;42155;53.096;23.226;2023-04-24T09:13:34;99127.63;;;23.63;32.40
56241;BME280;42155;53.096;23.226;2023-04-24T09:15:35;99125.00;;;23.56;32.40
56241;BME280;42155;53.096;23.226;2023-04-24T09:17:35;99116.03;;;23.56;33.10
56241;BME280;42155;53.096;23.226;2023-04-24T09:19:36;99131.25;;;23.57;32.21
56241;BME280;42155;53.096;23.226;2023-04-24T09:21:36;99119.81;;;23.55;32.86
56241;BME280;42155;53.096;23.226;2023-04-24T09:23:37;99117.34;;;23.53;32.86
56241;BME280;42155;53.096;23.226;2023-04-24T09:25:38;99093.97;;;23.41;33.35
56241;BME280;42155;53.096;23.226;2023-04-24T09:27:43;99116.81;;;23.63;32.72
56241;BME280;42155;53.096;23.226;2023-04-24T09:29:54;99107.78;;;23.69;32.95
56241;BME280;42155;53.096;23.226;2023-04-24T09:31:55;99102.38;;;23.69;32.80
56241;BME280;42155;53.096;23.226;2023-04-24T09:34:00;99104.63;;;23.72;32.75
56241;BME280;42155;53.096;23.226;2023-04-24T09:36:01;99034.44;;;23.22;32.50
56241;BME280;42155;53.096;23.226;2023-04-24T09:38:01;99103.03;;;23.65;31.86
56241;BME280;42155;53.096;23.226;2023-04-24T09:40:10;99089.56;;;23.58;32.49
56241;BME280;42155;53.096;23.226;2023-04-24T09:42:10;99106.41;;;23.60;32.24
56241;BME280;42155;53.096;23.226;2023-04-24T09:44:19;99106.41;;;23.60;32.87
56241;BME280;42155;53.096;23.226;2023-04-24T09:46:19;99066.44;;;23.44;32.52
56241;BME280;42155;53.096;23.226;2023-04-24T09:48:29;99069.88;;;23.51;32.53
56241;BME280;42155;53.096;23.226;2023-04-24T09:50:30;99102.81;;;23.66;32.95
56241;BME280;42155;53.096;23.226;2023-04-24T09:52:31;99085.03;;;23.70;32.39
56241;BME280;42155;53.096;23.226;2023-04-24T09:54:31;99045.94;;;23.48;32.13
56241;BME280;42155;53.096;23.226;2023-04-24T09:56:33;99074.91;;;23.66;32.45
56241;BME280;42155;53.096;23.226;2023-04-24T09:58:34;99083.78;;;23.84;31.69
56241;BME280;42155;53.096;23.226;2023-04-24T10:00:35;99073.44;;;23.81;32.13
56241;BME280;42155;53.096;23.226;2023-04-24T10:02:35;99079.81;;;23.87;32.08
56241;BME280;42155;53.096;23.226;2023-04-24T10:04:36;99080.75;;;23.93;32.40
56241;BME280;42155;53.096;23.226;2023-04-24T10:06:36;99081.00;;;24.03;31.41
56241;BME280;42155;53.096;23.226;2023-04-24T10:08:36;99078.91;;;24.05;31.42
56241;BME280;42155;53.096;23.226;2023-04-24T10:10:44;99067.66;;;23.89;31.46
56241;BME280;42155;53.096;23.226;2023-04-24T10:12:46;99074.81;;;23.72;30.77
56241;BME280;42155;53.096;23.226;2023-04-24T10:14:47;99078.44;;;23.66;31.00
56241;BME280;42155;53.096;23.226;2023-04-24T10:16:48;99084.84;;;23.53;31.43
56241;BME280;42155;53.096;23.226;2023-04-24T10:18:49;99082.06;;;23.42;32.02
56241;BME280;42155;53.096;23.226;2023-04-24T10:20:50;99077.28;;;23.44;32.00
56241;BME280;42155;53.096;23.226;2023-04-24T10:22:52;99014.00;;;23.08;31.97
56241;BME280;42155;53.096;23.226;2023-04-24T10:24:53;98992.94;;;23.10;31.70
56241;BME280;42155;53.096;23.226;2023-04-24T10:26:53;99080.00;;;23.55;32.10
56241;BME280;42155;53.096;23.226;2023-04-24T10:28:57;99063.31;;;23.58;31.92
56241;BME280;42155;53.096;23.226;2023-04-24T10:30:58;99074.69;;;23.67;33.04